createdAt,value
2022-12-11T00:02:02.664Z,75.27
2022-12-11T00:04:31.091Z,75.14
2022-12-11T00:06:59.057Z,75.19
2022-12-11T00:09:27.137Z,75.17
2022-12-11T00:11:55.099Z,75.25
2022-12-11T00:14:22.966Z,75.35
2022-12-11T00:16:50.845Z,75.40
2022-12-11T00:19:18.806Z,75.55
2022-12-11T00:21:46.980Z,75.62
2022-12-11T00:24:14.849Z,75.62
2022-12-11T00:26:42.821Z,75.49
2022-12-11T00:29:14.654Z,75.49
2022-12-11T00:31:43.091Z,75.28
2022-12-11T00:34:12.147Z,74.87
2022-12-11T00:36:40.126Z,75.18
2022-12-11T00:39:08.220Z,75.39
2022-12-11T00:41:36.264Z,75.41
2022-12-11T00:44:04.229Z,75.42
2022-12-11T00:46:32.104Z,75.56
2022-12-11T00:49:00.375Z,75.75
2022-12-11T00:51:28.215Z,75.32
2022-12-11T00:53:56.928Z,74.88
2022-12-11T00:56:25.511Z,75.17
2022-12-11T00:58:53.383Z,75.43
2022-12-11T01:01:22.756Z,75.25
2022-12-11T01:03:51.059Z,74.92
2022-12-11T01:06:20.329Z,74.23
2022-12-11T01:08:48.228Z,73.91
2022-12-11T01:11:16.739Z,73.68
2022-12-11T01:13:44.883Z,73.89
2022-12-11T01:16:14.176Z,73.33
2022-12-11T01:18:42.823Z,73.01
2022-12-11T01:21:12.687Z,73.45
2022-12-11T01:23:40.648Z,72.73
2022-12-11T01:26:10.376Z,73.04
2022-12-11T01:28:39.153Z,73.12
2022-12-11T01:31:14.425Z,72.78
2022-12-11T01:33:42.671Z,73.01
2022-12-11T01:36:11.863Z,72.82
2022-12-11T01:38:40.252Z,72.87
2022-12-11T01:41:08.729Z,72.82
2022-12-11T01:43:55.638Z,72.37
2022-12-11T01:46:23.949Z,72.34
2022-12-11T01:48:52.601Z,72.30
2022-12-11T01:51:20.985Z,71.62
2022-12-11T01:53:51.202Z,71.62
2022-12-11T01:56:19.583Z,71.40
2022-12-11T01:58:52.875Z,71.38
2022-12-11T02:01:34.720Z,71.58
2022-12-11T02:04:03.052Z,71.62
2022-12-11T02:06:38.595Z,71.70
2022-12-11T02:09:09.129Z,71.23
2022-12-11T02:11:46.110Z,70.63
2022-12-11T02:14:20.221Z,70.43
2022-12-11T02:16:55.976Z,70.23
2022-12-11T02:19:26.783Z,71.00
2022-12-11T02:21:56.943Z,71.04
2022-12-11T02:24:47.429Z,70.82
2022-12-11T02:27:34.652Z,70.89
2022-12-11T02:30:02.837Z,71.82
2022-12-11T02:32:35.601Z,71.85
2022-12-11T02:35:19.552Z,73.13
2022-12-11T02:37:49.769Z,73.70
2022-12-11T02:40:22.242Z,74.03
2022-12-11T02:42:51.174Z,74.53
2022-12-11T02:45:19.628Z,74.79
2022-12-11T02:47:48.301Z,74.98
2022-12-11T02:50:18.657Z,74.77
2022-12-11T02:52:48.519Z,74.93
2022-12-11T02:55:17.335Z,75.70
2022-12-11T02:57:48.068Z,75.82
2022-12-11T03:00:16.895Z,76.02
2022-12-11T03:02:45.485Z,76.14
2022-12-11T03:05:14.839Z,76.31
2022-12-11T03:07:43.932Z,76.62
2022-12-11T03:10:14.882Z,76.67
2022-12-11T03:12:50.413Z,75.48
2022-12-11T03:15:24.139Z,75.04
2022-12-11T03:17:54.756Z,75.45
2022-12-11T03:20:38.495Z,74.97
2022-12-11T03:23:09.537Z,75.88
2022-12-11T03:25:47.031Z,75.66
2022-12-11T03:28:30.564Z,76.54
2022-12-11T03:31:03.346Z,77.17
2022-12-11T03:33:36.949Z,77.68
2022-12-11T03:36:11.056Z,78.18
2022-12-11T03:38:46.414Z,78.57
2022-12-11T03:41:15.298Z,78.90
2022-12-11T03:43:44.573Z,78.56
2022-12-11T03:46:13.825Z,78.73
2022-12-11T03:48:43.916Z,78.94
2022-12-11T03:51:11.885Z,78.68
2022-12-11T03:53:39.918Z,79.06
2022-12-11T03:56:09.154Z,78.83
2022-12-11T03:58:37.224Z,78.43
2022-12-11T04:01:08.677Z,79.37
2022-12-11T04:03:36.857Z,79.94
2022-12-11T04:06:04.637Z,80.15
2022-12-11T04:08:32.789Z,80.06
2022-12-11T04:11:21.442Z,80.30
2022-12-11T04:14:12.050Z,80.67
2022-12-11T04:16:39.915Z,80.91
2022-12-11T04:19:27.649Z,81.11
2022-12-11T04:22:14.211Z,81.38
2022-12-11T04:24:42.634Z,81.90
2022-12-11T04:27:10.598Z,81.38
2022-12-11T04:29:38.467Z,80.67
2022-12-11T04:32:06.541Z,81.58
2022-12-11T04:34:34.377Z,82.75
2022-12-11T04:37:02.482Z,83.73
2022-12-11T04:39:30.341Z,84.46
2022-12-11T04:41:58.212Z,84.97
2022-12-11T04:44:26.079Z,84.29
2022-12-11T04:46:53.868Z,84.61
2022-12-11T04:49:21.816Z,84.93
2022-12-11T04:51:49.677Z,85.25
2022-12-11T04:54:17.554Z,84.99
2022-12-11T04:56:45.413Z,83.64
2022-12-11T04:59:13.386Z,84.02
2022-12-11T05:01:41.511Z,84.76
2022-12-11T05:04:09.527Z,85.86
2022-12-11T05:06:37.596Z,85.28
2022-12-11T05:09:05.566Z,85.90
2022-12-11T05:11:33.847Z,85.98
2022-12-11T05:14:01.814Z,85.66
2022-12-11T05:16:29.709Z,86.32
2022-12-11T05:18:57.650Z,86.04
2022-12-11T05:21:27.994Z,85.60
2022-12-11T05:23:59.610Z,86.15
2022-12-11T05:26:27.500Z,86.49
2022-12-11T05:28:55.473Z,86.48
2022-12-11T05:31:25.105Z,86.18
2022-12-11T05:33:53.914Z,85.29
2022-12-11T05:36:29.823Z,85.80
2022-12-11T05:38:58.608Z,85.85
2022-12-11T05:41:28.610Z,85.71
2022-12-11T05:43:56.797Z,86.00
2022-12-11T05:46:26.169Z,84.92
2022-12-11T05:48:55.100Z,85.46
2022-12-11T05:51:23.474Z,84.65
2022-12-11T05:53:52.055Z,85.30
2022-12-11T05:56:21.254Z,85.15
2022-12-11T05:58:49.842Z,84.62
2022-12-11T06:01:40.902Z,84.73
2022-12-11T06:04:10.562Z,84.20
2022-12-11T06:06:38.839Z,84.58
2022-12-11T06:09:07.222Z,83.96
2022-12-11T06:11:35.981Z,84.40
2022-12-11T06:14:04.283Z,82.79
2022-12-11T06:16:32.650Z,82.83
2022-12-11T06:19:00.616Z,83.68
2022-12-11T06:21:30.555Z,83.49
2022-12-11T06:23:59.642Z,82.92
2022-12-11T06:26:28.737Z,81.81
2022-12-11T06:28:56.711Z,82.01
2022-12-11T06:31:24.739Z,82.07
2022-12-11T06:33:52.852Z,81.39
2022-12-11T06:36:22.152Z,80.63
2022-12-11T06:38:50.115Z,80.50
2022-12-11T06:41:18.093Z,80.59
2022-12-11T06:43:45.939Z,81.09
2022-12-11T06:46:14.823Z,81.28
2022-12-11T06:48:43.377Z,82.02
2022-12-11T06:51:12.838Z,83.50
2022-12-11T06:53:41.014Z,83.94
2022-12-11T06:56:10.309Z,85.17
2022-12-11T06:58:38.896Z,85.83
2022-12-11T07:01:14.698Z,85.47
2022-12-11T07:03:43.125Z,85.43
2022-12-11T07:06:11.298Z,85.98
2022-12-11T07:08:39.575Z,85.72
2022-12-11T07:11:09.048Z,86.08
2022-12-11T07:13:37.358Z,86.14
2022-12-11T07:16:10.854Z,85.79
2022-12-11T07:18:42.945Z,86.00
2022-12-11T07:21:12.635Z,85.94
2022-12-11T07:23:41.009Z,85.88
2022-12-11T07:26:10.632Z,85.43
2022-12-11T07:28:39.201Z,85.01
2022-12-11T07:31:11.043Z,85.07
2022-12-11T07:33:39.342Z,85.20
2022-12-11T07:36:09.172Z,85.22
2022-12-11T07:38:37.225Z,85.11
2022-12-11T07:41:06.229Z,83.95
2022-12-11T07:43:35.324Z,83.41
2022-12-11T07:46:04.881Z,82.48
2022-12-11T07:48:35.245Z,82.74
2022-12-11T07:51:15.254Z,81.99
2022-12-11T07:53:45.528Z,81.54
2022-12-11T07:56:13.799Z,81.23
2022-12-11T07:58:42.277Z,81.22
2022-12-11T08:01:18.607Z,80.78
2022-12-11T08:03:46.824Z,80.88
2022-12-11T08:06:15.206Z,80.87
2022-12-11T08:08:43.171Z,80.14
2022-12-11T08:11:13.186Z,80.05
2022-12-11T08:13:41.973Z,79.04
2022-12-11T08:16:13.187Z,78.65
2022-12-11T08:18:41.911Z,77.70
2022-12-11T08:21:11.108Z,77.71
2022-12-11T08:23:39.381Z,78.02
2022-12-11T08:26:08.682Z,77.04
2022-12-11T08:28:37.168Z,75.92
2022-12-11T08:31:06.515Z,75.53
2022-12-11T08:33:35.391Z,74.74
2022-12-11T08:36:07.211Z,73.02
2022-12-11T08:38:35.373Z,71.73
2022-12-11T08:41:13.496Z,71.79
2022-12-11T08:43:41.814Z,72.13
2022-12-11T08:46:10.338Z,71.14
2022-12-11T08:48:39.656Z,70.58
2022-12-11T08:51:08.580Z,70.16
2022-12-11T08:53:36.908Z,68.52
2022-12-11T08:56:06.537Z,69.05
2022-12-11T08:58:34.508Z,67.52
2022-12-11T09:01:09.489Z,67.24
2022-12-11T09:03:38.226Z,67.01
2022-12-11T09:06:07.208Z,66.54
2022-12-11T09:08:35.191Z,66.72
2022-12-11T09:11:13.809Z,66.82
2022-12-11T09:13:42.295Z,66.90
2022-12-11T09:16:11.834Z,67.02
2022-12-11T09:18:40.172Z,67.07
2022-12-11T09:21:13.677Z,67.59
2022-12-11T09:23:41.750Z,68.38
2022-12-11T09:26:11.251Z,68.07
2022-12-11T09:28:45.729Z,68.40
2022-12-11T09:31:15.640Z,68.61
2022-12-11T09:33:44.017Z,69.37
2022-12-11T09:36:12.456Z,69.52
2022-12-11T09:38:40.523Z,68.87
2022-12-11T09:41:17.811Z,68.94
2022-12-11T09:44:12.198Z,70.16
2022-12-11T09:46:40.964Z,68.61
2022-12-11T09:49:25.119Z,67.76
2022-12-11T09:51:58.938Z,68.65
2022-12-11T09:54:27.217Z,68.63
2022-12-11T09:56:55.187Z,69.49
2022-12-11T09:59:41.596Z,70.21
2022-12-11T10:02:18.457Z,69.21
2022-12-11T10:04:59.343Z,69.40
2022-12-11T10:07:33.148Z,69.42
2022-12-11T10:10:01.118Z,69.64
2022-12-11T10:12:29.083Z,69.24
2022-12-11T10:15:00.058Z,68.91
2022-12-11T10:17:30.553Z,66.84
2022-12-11T10:20:03.618Z,66.40
2022-12-11T10:22:32.942Z,62.45
2022-12-11T10:25:13.028Z,57.21
2022-12-11T10:27:41.482Z,54.96
2022-12-11T10:30:15.964Z,52.79
2022-12-11T10:33:02.517Z,50.53
2022-12-11T10:35:39.385Z,49.75
2022-12-11T10:38:16.248Z,49.26
2022-12-11T10:40:45.666Z,48.39
2022-12-11T10:43:13.850Z,48.15
2022-12-11T10:45:50.611Z,45.06
2022-12-11T10:48:18.480Z,44.58
2022-12-11T10:50:55.665Z,45.34
2022-12-11T10:53:24.250Z,44.62
2022-12-11T10:55:53.038Z,42.23
2022-12-11T10:58:23.042Z,41.46
2022-12-11T11:01:00.098Z,41.14
2022-12-11T11:03:28.725Z,42.66
2022-12-11T11:06:22.564Z,42.08
2022-12-11T11:08:58.148Z,42.89
2022-12-11T11:11:34.330Z,43.64
2022-12-11T11:14:18.865Z,44.81
2022-12-11T11:16:48.168Z,45.05
2022-12-11T11:19:19.211Z,44.99
2022-12-11T11:21:49.430Z,44.21
2022-12-11T11:24:23.340Z,44.81
2022-12-11T11:27:20.668Z,44.75
2022-12-11T11:29:39.355Z,45.17
2022-12-11T11:32:16.027Z,46.93
2022-12-11T11:34:43.890Z,47.62
2022-12-11T11:37:38.585Z,48.36
2022-12-11T11:40:11.677Z,49.47
2022-12-11T11:42:48.554Z,48.95
2022-12-11T11:45:20.729Z,48.33
2022-12-11T11:47:53.818Z,49.64
2022-12-11T11:50:28.543Z,50.06
2022-12-11T11:52:56.427Z,50.84
2022-12-11T11:55:33.282Z,51.46
2022-12-11T11:58:03.919Z,51.41
2022-12-11T12:00:33.829Z,52.40
2022-12-11T12:03:04.577Z,52.58
2022-12-11T12:05:35.606Z,53.43
2022-12-11T12:08:12.629Z,53.83
2022-12-11T12:10:51.923Z,54.10
2022-12-11T12:13:49.133Z,54.31
2022-12-11T12:16:52.095Z,54.97
2022-12-11T12:19:38.385Z,56.07
2022-12-11T12:22:29.896Z,56.36
2022-12-11T12:25:03.193Z,56.46
2022-12-11T12:27:52.720Z,55.89
2022-12-11T12:30:23.445Z,53.88
2022-12-11T12:32:51.881Z,53.51
2022-12-11T12:35:35.941Z,53.55
2022-12-11T12:38:21.914Z,53.86
2022-12-11T12:41:05.139Z,54.18
2022-12-11T12:43:36.279Z,55.68
2022-12-11T12:46:23.197Z,56.20
2022-12-11T12:48:51.892Z,56.47
2022-12-11T12:51:20.158Z,57.38
2022-12-11T12:53:52.637Z,58.29
2022-12-11T12:56:21.830Z,58.98
2022-12-11T12:58:49.697Z,59.33
2022-12-11T13:01:25.588Z,59.43
2022-12-11T13:03:58.335Z,59.48
2022-12-11T13:06:42.690Z,60.04
2022-12-11T13:09:14.042Z,60.30
2022-12-11T13:11:41.903Z,60.42
2022-12-11T13:14:15.608Z,60.77
2022-12-11T13:16:44.670Z,60.65
2022-12-11T13:19:25.679Z,60.77
2022-12-11T13:22:16.527Z,61.32
2022-12-11T13:24:48.854Z,61.41
2022-12-11T13:27:31.798Z,61.58
2022-12-11T13:30:06.052Z,61.78
2022-12-11T13:32:34.780Z,62.71
2022-12-11T13:35:05.720Z,62.77
2022-12-11T13:37:36.173Z,63.28
2022-12-11T13:40:08.524Z,62.62
2022-12-11T13:42:40.892Z,61.94
2022-12-11T13:45:17.987Z,62.74
2022-12-11T13:47:46.864Z,61.74
2022-12-11T13:50:19.648Z,61.06
2022-12-11T13:52:54.513Z,60.31
2022-12-11T13:55:27.234Z,59.64
2022-12-11T13:57:55.135Z,60.17
2022-12-11T14:00:24.504Z,60.45
2022-12-11T14:02:54.345Z,61.09
2022-12-11T14:05:22.786Z,60.32
2022-12-11T14:07:55.550Z,60.27
2022-12-11T14:10:27.845Z,60.12
2022-12-11T14:13:17.966Z,60.33
2022-12-11T14:15:46.455Z,59.64
2022-12-11T14:18:23.532Z,59.61
2022-12-11T14:21:02.253Z,59.21
2022-12-11T14:23:31.964Z,59.22
2022-12-11T14:26:01.526Z,59.53
2022-12-11T14:28:36.249Z,59.68
2022-12-11T14:31:05.880Z,59.78
2022-12-11T14:33:45.560Z,60.09
2022-12-11T14:36:15.670Z,60.18
2022-12-11T14:38:46.640Z,59.73
2022-12-11T14:41:24.644Z,60.73
2022-12-11T14:43:55.039Z,61.13
2022-12-11T14:46:46.372Z,60.79
2022-12-11T14:49:49.656Z,61.22
2022-12-11T14:52:24.076Z,60.78
2022-12-11T14:55:07.901Z,60.64
2022-12-11T14:57:36.197Z,60.52
2022-12-11T15:00:05.229Z,60.43
2022-12-11T15:02:34.853Z,60.21
2022-12-11T15:05:03.377Z,60.62
2022-12-11T15:07:32.284Z,60.47
2022-12-11T15:10:00.248Z,60.20
2022-12-11T15:12:28.258Z,59.91
2022-12-11T15:15:01.043Z,60.12
2022-12-11T15:17:31.318Z,60.34
2022-12-11T15:20:09.968Z,60.54
2022-12-11T15:22:38.420Z,60.63
2022-12-11T15:25:06.596Z,61.54
2022-12-11T15:27:38.769Z,61.02
2022-12-11T15:30:16.059Z,60.98
2022-12-11T15:32:44.027Z,60.42
2022-12-11T15:35:25.814Z,60.33
2022-12-11T15:37:57.777Z,61.15
2022-12-11T15:40:27.084Z,60.92
2022-12-11T15:42:55.663Z,61.13
2022-12-11T15:45:25.478Z,61.45
2022-12-11T15:47:53.549Z,60.64
2022-12-11T15:50:24.364Z,60.49
2022-12-11T15:52:53.271Z,60.71
2022-12-11T15:55:22.497Z,60.68
2022-12-11T15:57:55.353Z,60.27
2022-12-11T16:00:24.246Z,60.12
2022-12-11T16:02:52.349Z,60.31
2022-12-11T16:05:22.648Z,60.26
2022-12-11T16:07:55.052Z,60.22
2022-12-11T16:10:23.097Z,60.22
2022-12-11T16:12:51.060Z,60.95
2022-12-11T16:15:23.539Z,60.94
2022-12-11T16:17:59.593Z,61.16
2022-12-11T16:20:27.767Z,61.31
2022-12-11T16:22:55.745Z,61.33
2022-12-11T16:25:24.009Z,61.26
2022-12-11T16:27:51.921Z,61.36
2022-12-11T16:30:20.067Z,61.48
2022-12-11T16:32:48.131Z,61.24
2022-12-11T16:35:16.192Z,61.45
2022-12-11T16:37:44.996Z,61.26
2022-12-11T16:40:14.692Z,61.27
2022-12-11T16:42:42.782Z,61.81
2022-12-11T16:45:12.921Z,61.77
2022-12-11T16:47:41.030Z,61.69
2022-12-11T16:50:09.419Z,61.47
2022-12-11T16:52:37.416Z,61.53
2022-12-11T16:55:05.580Z,61.71
2022-12-11T16:57:33.653Z,61.91
2022-12-11T17:00:02.055Z,61.87
2022-12-11T17:02:30.061Z,62.11
2022-12-11T17:04:58.176Z,62.28
2022-12-11T17:07:26.459Z,62.44
2022-12-11T17:09:54.267Z,62.45
2022-12-11T17:12:27.725Z,62.48
2022-12-11T17:14:56.512Z,62.83
2022-12-11T17:17:24.990Z,62.75
2022-12-11T17:19:53.030Z,62.24
2022-12-11T17:22:21.031Z,63.14
2022-12-11T17:24:49.706Z,63.46
2022-12-11T17:27:17.584Z,64.24
2022-12-11T17:29:45.860Z,64.31
2022-12-11T17:32:14.031Z,64.22
2022-12-11T17:34:41.827Z,64.73
2022-12-11T17:37:09.973Z,65.00
2022-12-11T17:39:38.146Z,64.76
2022-12-11T17:42:06.524Z,65.04
2022-12-11T17:44:34.800Z,65.42
2022-12-11T17:47:07.510Z,65.18
2022-12-11T17:49:39.579Z,64.77
2022-12-11T17:52:07.930Z,65.07
2022-12-11T17:54:35.900Z,65.55
2022-12-11T17:57:04.080Z,64.83
2022-12-11T17:59:32.150Z,65.52
2022-12-11T18:02:00.170Z,65.20
2022-12-11T18:04:28.287Z,65.22
2022-12-11T18:06:56.259Z,65.25
2022-12-11T18:09:24.327Z,65.13
2022-12-11T18:11:52.297Z,65.54
2022-12-11T18:14:20.364Z,65.86
2022-12-11T18:16:48.650Z,65.92
2022-12-11T18:19:17.023Z,66.93
2022-12-11T18:21:46.021Z,66.89
2022-12-11T18:24:14.201Z,67.16
2022-12-11T18:26:43.087Z,67.08
2022-12-11T18:29:11.467Z,67.51
2022-12-11T18:31:42.660Z,67.56
2022-12-11T18:34:11.192Z,67.95
2022-12-11T18:36:40.905Z,68.15
2022-12-11T18:39:09.074Z,67.82
2022-12-11T18:41:37.146Z,67.33
2022-12-11T18:44:09.571Z,67.37
2022-12-11T18:46:39.624Z,67.07
2022-12-11T18:49:07.711Z,67.21
2022-12-11T18:51:36.203Z,67.33
2022-12-11T18:54:04.121Z,69.32
2022-12-11T18:56:32.026Z,69.33
2022-12-11T18:58:59.881Z,69.66
2022-12-11T19:01:33.309Z,69.05
2022-12-11T19:04:06.495Z,69.93
2022-12-11T19:06:37.125Z,69.99
2022-12-11T19:09:06.411Z,70.91
2022-12-11T19:11:35.255Z,71.04
2022-12-11T19:14:05.327Z,70.95
2022-12-11T19:16:34.765Z,71.19
2022-12-11T19:19:07.508Z,71.30
2022-12-11T19:21:37.738Z,71.25
2022-12-11T19:24:07.326Z,71.83
2022-12-11T19:26:35.312Z,72.18
2022-12-11T19:29:03.793Z,72.51
2022-12-11T19:31:32.340Z,72.81
2022-12-11T19:34:01.388Z,73.28
2022-12-11T19:36:29.857Z,73.55
2022-12-11T19:39:01.525Z,73.98
2022-12-11T19:41:30.912Z,74.00
2022-12-11T19:43:59.392Z,74.78
2022-12-11T19:46:28.246Z,75.08
2022-12-11T19:48:57.341Z,75.10
2022-12-11T19:51:28.519Z,75.05
2022-12-11T19:53:56.493Z,75.54
2022-12-11T19:56:24.385Z,75.62
2022-12-11T19:58:52.433Z,75.59
2022-12-11T20:01:24.956Z,75.73
2022-12-11T20:03:53.795Z,75.76
2022-12-11T20:06:21.662Z,75.53
2022-12-11T20:08:50.016Z,75.70
2022-12-11T20:11:19.168Z,75.40
2022-12-11T20:13:48.135Z,75.39
2022-12-11T20:16:17.373Z,74.76
2022-12-11T20:18:45.605Z,74.59
2022-12-11T20:21:14.567Z,74.12
2022-12-11T20:23:42.927Z,74.53
2022-12-11T20:26:13.391Z,74.91
2022-12-11T20:28:41.836Z,75.06
2022-12-11T20:31:19.502Z,74.61
2022-12-11T20:33:49.426Z,75.24
2022-12-11T20:36:18.910Z,75.91
2022-12-11T20:38:48.312Z,76.03
2022-12-11T20:41:17.606Z,76.56
2022-12-11T20:43:45.983Z,76.07
2022-12-11T20:46:15.162Z,75.96
2022-12-11T20:48:44.087Z,75.93
2022-12-11T20:51:12.757Z,75.78
2022-12-11T20:53:41.754Z,76.45
2022-12-11T20:56:13.923Z,76.42
2022-12-11T20:58:42.405Z,75.74
2022-12-11T21:01:17.470Z,75.26
2022-12-11T21:03:45.611Z,75.47
2022-12-11T21:06:22.910Z,75.72
2022-12-11T21:08:50.868Z,75.88
2022-12-11T21:11:19.049Z,75.79
2022-12-11T21:13:47.326Z,76.10
2022-12-11T21:16:15.836Z,76.34
2022-12-11T21:18:44.488Z,76.65
2022-12-11T21:21:12.669Z,77.19
2022-12-11T21:23:40.631Z,77.48
2022-12-11T21:26:08.607Z,77.74
2022-12-11T21:28:36.449Z,77.36
2022-12-11T21:31:06.794Z,77.28
2022-12-11T21:33:35.273Z,76.73
2022-12-11T21:36:04.069Z,76.59
2022-12-11T21:38:32.038Z,76.73
2022-12-11T21:41:10.560Z,77.07
2022-12-11T21:43:54.585Z,76.81
2022-12-11T21:46:27.970Z,76.89
2022-12-11T21:48:56.064Z,77.01
2022-12-11T21:51:28.608Z,76.64
2022-12-11T21:53:58.984Z,76.70
2022-12-11T21:56:28.061Z,77.44
2022-12-11T21:58:56.132Z,77.21
2022-12-11T22:01:29.265Z,77.14
2022-12-11T22:03:57.910Z,77.91
2022-12-11T22:06:25.780Z,77.79
2022-12-11T22:08:53.846Z,77.83
2022-12-11T22:11:23.963Z,78.29
2022-12-11T22:13:52.038Z,78.05
2022-12-11T22:16:21.175Z,78.36
2022-12-11T22:18:49.531Z,78.51
2022-12-11T22:21:18.060Z,78.31
2022-12-11T22:23:46.601Z,78.25
2022-12-11T22:26:19.245Z,77.79
2022-12-11T22:28:47.085Z,77.78
2022-12-11T22:31:16.962Z,77.93
2022-12-11T22:33:45.117Z,76.51
2022-12-11T22:36:12.970Z,75.75
2022-12-11T22:38:40.846Z,75.31
2022-12-11T22:41:16.356Z,75.53
2022-12-11T22:43:48.459Z,75.32
2022-12-11T22:46:17.651Z,75.14
2022-12-11T22:48:45.670Z,75.52
2022-12-11T22:51:14.006Z,75.26
2022-12-11T22:53:42.141Z,74.85
2022-12-11T22:56:11.030Z,74.28
2022-12-11T22:58:39.453Z,74.43
2022-12-11T23:01:11.520Z,74.60
2022-12-11T23:03:39.508Z,74.66
2022-12-11T23:06:08.887Z,74.34
2022-12-11T23:08:37.373Z,73.48
2022-12-11T23:11:11.591Z,73.60
2022-12-11T23:13:40.681Z,74.27
2022-12-11T23:16:09.884Z,74.55
2022-12-11T23:18:38.565Z,74.42
2022-12-11T23:21:08.280Z,74.56
2022-12-11T23:23:38.544Z,74.32
2022-12-11T23:26:07.596Z,74.37
2022-12-11T23:28:36.266Z,74.70
2022-12-11T23:31:04.710Z,74.37
2022-12-11T23:33:32.834Z,74.47
2022-12-11T23:36:00.816Z,74.85
2022-12-11T23:38:28.772Z,74.31
2022-12-11T23:40:58.494Z,74.68
2022-12-11T23:43:26.861Z,74.44
2022-12-11T23:45:54.736Z,74.65
2022-12-11T23:48:22.805Z,74.10
2022-12-11T23:50:50.983Z,73.65
2022-12-11T23:53:19.157Z,73.51
2022-12-11T23:55:47.734Z,73.81
2022-12-11T23:58:15.709Z,73.82
